Aérodrome :
LOGIN :

S'inscrire | Disclaimer

   EN    FR    IT 

 










Légende :    VFR   VFR Marginal   IFR   IFR Intensif   IFR Très Intensif
Visi : 
Plafond : 
>= 8 km
>= 3000ft
5 à 8 km
1000 à 3000 ft
1500m à 5 km
500 à 1000 ft
800 à 1500m
200 à 500 ft
< 800m
< 200 ft
Symboles :   Orages  Brouillard  Fortes neiges  Fortes précipitations  Vent > 20 kt
SIGMETs :   Divers  Orages  Givrage  Turbulence  Onde Orograph.  Cendres Volcan.







- Altitude de l'aérodrome : 82 ft
- Code IATA : QIE
- Voir les cartes d'approche


LFMI - Istres

DERNIER METAR :
  • 290500Z AUTO 02006KT CAVOK 05/01 Q1014 TEMPO 30011KT

METARs EXPIRÉS :
  • 290430Z AUTO 01005KT 9999 3600 NSC 05/01 Q1014 TEMPO 30011KT
  • 290400Z AUTO 02005KT CAVOK 05/01 Q1014 TEMPO 30011KT
  • 290330Z AUTO 03003KT 360V060 CAVOK 05/01 Q1014 TEMPO 30011KT
  • 290300Z AUTO 36008KT CAVOK 06/01 Q1014 TEMPO 30011KT
  • 290230Z AUTO 36006KT CAVOK 06/01 Q1014 TEMPO 30011KT

TAF TAF LFMI
Valide du 29 à 03h jusqu'au 30 à 03h UTC


290200Z 2903/3003 VRB05KT CAVOK
TEMPO 2903/2906 30011KT
TEMPO 2909/2917 20013KT
Pas de NOTAMs connus pour ce terrain.



MET'MAP, la Météo Aéronautique d'un coup d'oeil ! - Copyright ORBIFLY Décembre 2007 - Disclaimer

ORBIFLY MET'MAP TEAM :

Programmation & Développement : Alexandra Zaïnal
Conception & Développement : Baudouin d'Aumeries
Co-Programmation & Développement : Marc-Olivier Méhu
Soutien technique & logistique : Manuel Goepfert

Contact : metmap@orbifly.com




SOURCES & CREDITS :

   NOAA